sensor_id;sensor_type;location;lat;lon;timestamp;P1;durP1;ratioP1;P2;durP2;ratioP2
11839;SDS011;5979;50.800;4.904;2023-02-01T00:01:54;22.30;;;14.60;;
11839;SDS011;5979;50.800;4.904;2023-02-01T00:04:21;23.67;;;13.60;;
11839;SDS011;5979;50.800;4.904;2023-02-01T00:06:47;21.15;;;13.65;;
11839;SDS011;5979;50.800;4.904;2023-02-01T00:09:13;22.77;;;13.43;;
11839;SDS011;5979;50.800;4.904;2023-02-01T00:11:39;24.83;;;13.80;;
11839;SDS011;5979;50.800;4.904;2023-02-01T00:14:05;20.52;;;13.52;;
11839;SDS011;5979;50.800;4.904;2023-02-01T00:16:31;19.23;;;13.23;;
11839;SDS011;5979;50.800;4.904;2023-02-01T00:19:02;23.92;;;13.73;;
11839;SDS011;5979;50.800;4.904;2023-02-01T00:21:30;20.23;;;12.73;;
11839;SDS011;5979;50.800;4.904;2023-02-01T00:23:56;26.83;;;15.10;;
11839;SDS011;5979;50.800;4.904;2023-02-01T00:26:25;25.08;;;13.40;;
11839;SDS011;5979;50.800;4.904;2023-02-01T00:29:02;23.25;;;13.80;;
11839;SDS011;5979;50.800;4.904;2023-02-01T00:31:30;24.38;;;13.52;;
11839;SDS011;5979;50.800;4.904;2023-02-01T00:33:56;21.77;;;13.35;;
11839;SDS011;5979;50.800;4.904;2023-02-01T00:36:22;23.38;;;12.98;;
11839;SDS011;5979;50.800;4.904;2023-02-01T00:38:48;23.42;;;13.38;;
11839;SDS011;5979;50.800;4.904;2023-02-01T00:41:15;19.88;;;13.55;;
11839;SDS011;5979;50.800;4.904;2023-02-01T00:43:43;24.10;;;12.90;;
11839;SDS011;5979;50.800;4.904;2023-02-01T00:46:09;23.15;;;12.45;;
11839;SDS011;5979;50.800;4.904;2023-02-01T00:48:36;20.20;;;13.60;;
11839;SDS011;5979;50.800;4.904;2023-02-01T00:51:03;25.83;;;13.27;;
11839;SDS011;5979;50.800;4.904;2023-02-01T00:53:30;19.05;;;13.55;;
11839;SDS011;5979;50.800;4.904;2023-02-01T00:55:56;26.08;;;13.27;;
11839;SDS011;5979;50.800;4.904;2023-02-01T00:58:22;19.80;;;13.13;;
11839;SDS011;5979;50.800;4.904;2023-02-01T01:03:38;24.50;;;12.98;;
11839;SDS011;5979;50.800;4.904;2023-02-01T01:06:28;22.60;;;11.60;;
11839;SDS011;5979;50.800;4.904;2023-02-01T01:08:56;20.88;;;12.70;;
11839;SDS011;5979;50.800;4.904;2023-02-01T01:11:25;17.83;;;11.27;;
11839;SDS011;5979;50.800;4.904;2023-02-01T01:13:55;17.40;;;11.70;;
11839;SDS011;5979;50.800;4.904;2023-02-01T01:16:22;19.38;;;12.18;;
11839;SDS011;5979;50.800;4.904;2023-02-01T01:18:51;21.35;;;12.07;;
11839;SDS011;5979;50.800;4.904;2023-02-01T01:21:17;19.42;;;11.77;;
11839;SDS011;5979;50.800;4.904;2023-02-01T01:23:43;17.90;;;10.98;;
11839;SDS011;5979;50.800;4.904;2023-02-01T01:26:12;15.20;;;9.95;;
11839;SDS011;5979;50.800;4.904;2023-02-01T01:28:40;22.70;;;10.68;;
11839;SDS011;5979;50.800;4.904;2023-02-01T01:31:10;12.85;;;9.32;;
11839;SDS011;5979;50.800;4.904;2023-02-01T01:33:37;18.48;;;10.10;;
11839;SDS011;5979;50.800;4.904;2023-02-01T01:36:09;16.98;;;9.98;;
11839;SDS011;5979;50.800;4.904;2023-02-01T01:38:39;20.83;;;9.63;;
11839;SDS011;5979;50.800;4.904;2023-02-01T01:41:05;16.83;;;7.80;;
11839;SDS011;5979;50.800;4.904;2023-02-01T01:46:34;19.45;;;7.38;;
11839;SDS011;5979;50.800;4.904;2023-02-01T01:49:06;10.73;;;6.95;;
11839;SDS011;5979;50.800;4.904;2023-02-01T01:51:37;13.32;;;7.18;;
11839;SDS011;5979;50.800;4.904;2023-02-01T01:54:26;17.58;;;7.03;;
11839;SDS011;5979;50.800;4.904;2023-02-01T01:56:56;18.05;;;7.75;;
11839;SDS011;5979;50.800;4.904;2023-02-01T01:59:25;15.60;;;7.25;;
11839;SDS011;5979;50.800;4.904;2023-02-01T02:01:52;14.40;;;6.47;;
11839;SDS011;5979;50.800;4.904;2023-02-01T02:04:17;16.27;;;6.07;;
11839;SDS011;5979;50.800;4.904;2023-02-01T02:06:50;13.85;;;6.07;;
11839;SDS011;5979;50.800;4.904;2023-02-01T02:09:22;14.68;;;6.60;;
11839;SDS011;5979;50.800;4.904;2023-02-01T02:11:48;16.30;;;6.22;;
11839;SDS011;5979;50.800;4.904;2023-02-01T02:14:14;15.63;;;6.60;;
11839;SDS011;5979;50.800;4.904;2023-02-01T02:24:58;11.27;;;5.40;;
11839;SDS011;5979;50.800;4.904;2023-02-01T02:27:46;12.02;;;5.35;;
11839;SDS011;5979;50.800;4.904;2023-02-01T02:44:34;8.27;;;4.25;;
11839;SDS011;5979;50.800;4.904;2023-02-01T02:50:33;10.13;;;3.95;;
11839;SDS011;5979;50.800;4.904;2023-02-01T02:56:34;9.35;;;3.47;;
11839;SDS011;5979;50.800;4.904;2023-02-01T02:59:20;14.88;;;4.72;;
11839;SDS011;5979;50.800;4.904;2023-02-01T03:02:07;14.88;;;3.97;;
11839;SDS011;5979;50.800;4.904;2023-02-01T03:04:53;13.43;;;4.53;;
11839;SDS011;5979;50.800;4.904;2023-02-01T03:12:59;8.10;;;3.53;;
11839;SDS011;5979;50.800;4.904;2023-02-01T03:18:32;8.68;;;4.00;;
11839;SDS011;5979;50.800;4.904;2023-02-01T03:21:00;7.43;;;3.83;;
11839;SDS011;5979;50.800;4.904;2023-02-01T03:23:30;11.55;;;3.10;;
11839;SDS011;5979;50.800;4.904;2023-02-01T03:25:58;13.05;;;4.40;;
11839;SDS011;5979;50.800;4.904;2023-02-01T03:28:27;8.05;;;3.03;;
11839;SDS011;5979;50.800;4.904;2023-02-01T03:30:54;17.73;;;4.35;;
11839;SDS011;5979;50.800;4.904;2023-02-01T03:33:21;13.32;;;3.50;;
11839;SDS011;5979;50.800;4.904;2023-02-01T03:43:58;7.68;;;3.47;;
11839;SDS011;5979;50.800;4.904;2023-02-01T03:49:23;13.63;;;3.90;;
11839;SDS011;5979;50.800;4.904;2023-02-01T03:52:09;10.65;;;3.70;;
11839;SDS011;5979;50.800;4.904;2023-02-01T03:54:41;10.65;;;4.00;;
11839;SDS011;5979;50.800;4.904;2023-02-01T03:57:09;12.68;;;3.92;;
11839;SDS011;5979;50.800;4.904;2023-02-01T03:59:41;14.15;;;3.70;;
11839;SDS011;5979;50.800;4.904;2023-02-01T04:02:07;11.93;;;3.92;;
11839;SDS011;5979;50.800;4.904;2023-02-01T04:04:33;12.63;;;3.80;;
11839;SDS011;5979;50.800;4.904;2023-02-01T04:07:00;10.05;;;4.03;;
11839;SDS011;5979;50.800;4.904;2023-02-01T04:09:25;10.63;;;4.38;;
11839;SDS011;5979;50.800;4.904;2023-02-01T04:11:51;10.07;;;3.80;;
11839;SDS011;5979;50.800;4.904;2023-02-01T04:14:17;14.07;;;3.85;;
11839;SDS011;5979;50.800;4.904;2023-02-01T04:16:42;12.40;;;3.95;;
11839;SDS011;5979;50.800;4.904;2023-02-01T04:19:08;13.77;;;3.70;;
11839;SDS011;5979;50.800;4.904;2023-02-01T04:21:34;9.55;;;3.78;;
11839;SDS011;5979;50.800;4.904;2023-02-01T04:23:59;14.95;;;4.10;;
11839;SDS011;5979;50.800;4.904;2023-02-01T04:26:25;8.15;;;3.47;;
11839;SDS011;5979;50.800;4.904;2023-02-01T04:28:51;9.80;;;4.07;;
11839;SDS011;5979;50.800;4.904;2023-02-01T04:31:17;13.43;;;3.83;;
11839;SDS011;5979;50.800;4.904;2023-02-01T04:33:53;10.35;;;3.75;;
11839;SDS011;5979;50.800;4.904;2023-02-01T04:36:22;15.38;;;3.80;;
11839;SDS011;5979;50.800;4.904;2023-02-01T04:38:48;10.75;;;3.50;;
11839;SDS011;5979;50.800;4.904;2023-02-01T04:41:15;8.85;;;3.67;;
11839;SDS011;5979;50.800;4.904;2023-02-01T04:43:44;10.95;;;4.03;;
11839;SDS011;5979;50.800;4.904;2023-02-01T04:46:10;14.98;;;3.35;;
11839;SDS011;5979;50.800;4.904;2023-02-01T04:48:36;9.25;;;3.75;;
11839;SDS011;5979;50.800;4.904;2023-02-01T04:51:02;10.82;;;4.20;;
11839;SDS011;5979;50.800;4.904;2023-02-01T04:53:27;14.35;;;3.92;;
11839;SDS011;5979;50.800;4.904;2023-02-01T04:55:54;15.23;;;4.10;;
11839;SDS011;5979;50.800;4.904;2023-02-01T04:58:20;10.90;;;3.28;;
11839;SDS011;5979;50.800;4.904;2023-02-01T05:00:46;12.73;;;4.50;;
11839;SDS011;5979;50.800;4.904;2023-02-01T05:03:12;11.35;;;4.07;;
11839;SDS011;5979;50.800;4.904;2023-02-01T05:05:38;11.35;;;3.42;;
11839;SDS011;5979;50.800;4.904;2023-02-01T05:08:03;8.60;;;3.88;;
11839;SDS011;5979;50.800;4.904;2023-02-01T05:10:29;13.52;;;3.72;;
11839;SDS011;5979;50.800;4.904;2023-02-01T05:12:55;12.68;;;4.22;;
11839;SDS011;5979;50.800;4.904;2023-02-01T05:15:39;14.60;;;3.85;;
11839;SDS011;5979;50.800;4.904;2023-02-01T05:18:04;11.40;;;4.53;;
11839;SDS011;5979;50.800;4.904;2023-02-01T05:20:30;17.05;;;4.63;;
11839;SDS011;5979;50.800;4.904;2023-02-01T05:22:56;16.90;;;4.15;;
11839;SDS011;5979;50.800;4.904;2023-02-01T05:25:21;12.68;;;3.35;;
11839;SDS011;5979;50.800;4.904;2023-02-01T05:27:47;12.00;;;3.90;;
11839;SDS011;5979;50.800;4.904;2023-02-01T05:30:13;13.98;;;3.65;;
11839;SDS011;5979;50.800;4.904;2023-02-01T05:32:39;10.95;;;3.42;;
11839;SDS011;5979;50.800;4.904;2023-02-01T05:35:05;9.82;;;3.47;;
11839;SDS011;5979;50.800;4.904;2023-02-01T05:37:31;11.23;;;4.22;;
11839;SDS011;5979;50.800;4.904;2023-02-01T05:39:56;11.82;;;4.05;;
11839;SDS011;5979;50.800;4.904;2023-02-01T05:42:22;12.15;;;4.25;;
11839;SDS011;5979;50.800;4.904;2023-02-01T05:44:48;10.48;;;4.13;;
11839;SDS011;5979;50.800;4.904;2023-02-01T05:47:13;13.88;;;4.20;;
11839;SDS011;5979;50.800;4.904;2023-02-01T05:49:39;8.48;;;3.63;;
11839;SDS011;5979;50.800;4.904;2023-02-01T05:52:05;9.38;;;3.67;;
11839;SDS011;5979;50.800;4.904;2023-02-01T05:54:30;15.18;;;4.20;;
11839;SDS011;5979;50.800;4.904;2023-02-01T05:56:56;11.60;;;4.32;;
11839;SDS011;5979;50.800;4.904;2023-02-01T05:59:22;10.65;;;3.85;;
11839;SDS011;5979;50.800;4.904;2023-02-01T06:01:47;11.57;;;3.70;;
11839;SDS011;5979;50.800;4.904;2023-02-01T06:04:13;11.48;;;3.40;;
11839;SDS011;5979;50.800;4.904;2023-02-01T06:06:39;10.02;;;3.58;;
11839;SDS011;5979;50.800;4.904;2023-02-01T06:09:05;10.90;;;3.42;;
11839;SDS011;5979;50.800;4.904;2023-02-01T06:11:31;15.48;;;3.58;;
11839;SDS011;5979;50.800;4.904;2023-02-01T06:13:56;13.00;;;4.03;;
11839;SDS011;5979;50.800;4.904;2023-02-01T06:16:22;14.07;;;3.97;;
11839;SDS011;5979;50.800;4.904;2023-02-01T06:18:48;10.25;;;3.83;;
11839;SDS011;5979;50.800;4.904;2023-02-01T06:21:14;14.93;;;4.43;;
11839;SDS011;5979;50.800;4.904;2023-02-01T06:23:48;11.77;;;4.30;;
11839;SDS011;5979;50.800;4.904;2023-02-01T06:26:18;11.30;;;3.80;;
11839;SDS011;5979;50.800;4.904;2023-02-01T06:28:44;11.02;;;3.38;;
11839;SDS011;5979;50.800;4.904;2023-02-01T06:31:09;12.98;;;4.18;;
11839;SDS011;5979;50.800;4.904;2023-02-01T06:33:35;11.85;;;3.90;;
11839;SDS011;5979;50.800;4.904;2023-02-01T06:36:02;18.90;;;4.35;;
11839;SDS011;5979;50.800;4.904;2023-02-01T06:38:31;12.63;;;3.97;;
11839;SDS011;5979;50.800;4.904;2023-02-01T06:40:59;12.27;;;4.03;;
11839;SDS011;5979;50.800;4.904;2023-02-01T06:43:25;11.07;;;3.80;;
11839;SDS011;5979;50.800;4.904;2023-02-01T06:45:52;14.23;;;4.18;;
11839;SDS011;5979;50.800;4.904;2023-02-01T06:48:24;11.48;;;3.83;;
11839;SDS011;5979;50.800;4.904;2023-02-01T06:50:49;14.15;;;3.55;;
11839;SDS011;5979;50.800;4.904;2023-02-01T06:53:15;14.00;;;3.63;;
11839;SDS011;5979;50.800;4.904;2023-02-01T06:55:41;14.43;;;3.90;;
11839;SDS011;5979;50.800;4.904;2023-02-01T06:58:06;12.43;;;4.38;;
11839;SDS011;5979;50.800;4.904;2023-02-01T07:00:32;7.47;;;3.67;;
11839;SDS011;5979;50.800;4.904;2023-02-01T07:02:58;16.27;;;4.25;;
11839;SDS011;5979;50.800;4.904;2023-02-01T07:05:24;11.13;;;3.67;;
11839;SDS011;5979;50.800;4.904;2023-02-01T07:07:50;9.43;;;4.22;;
11839;SDS011;5979;50.800;4.904;2023-02-01T07:10:16;15.05;;;4.28;;
11839;SDS011;5979;50.800;4.904;2023-02-01T07:12:42;11.45;;;4.00;;
11839;SDS011;5979;50.800;4.904;2023-02-01T07:15:07;15.10;;;3.85;;
11839;SDS011;5979;50.800;4.904;2023-02-01T07:17:33;12.65;;;4.40;;
11839;SDS011;5979;50.800;4.904;2023-02-01T07:19:59;16.20;;;4.05;;
11839;SDS011;5979;50.800;4.904;2023-02-01T07:22:26;19.33;;;4.50;;
11839;SDS011;5979;50.800;4.904;2023-02-01T07:24:52;12.05;;;3.58;;
11839;SDS011;5979;50.800;4.904;2023-02-01T07:27:18;15.82;;;4.70;;
11839;SDS011;5979;50.800;4.904;2023-02-01T07:29:44;10.48;;;4.03;;
11839;SDS011;5979;50.800;4.904;2023-02-01T07:32:10;12.98;;;4.28;;
11839;SDS011;5979;50.800;4.904;2023-02-01T07:34:36;11.15;;;3.80;;
11839;SDS011;5979;50.800;4.904;2023-02-01T07:37:01;14.95;;;4.22;;
11839;SDS011;5979;50.800;4.904;2023-02-01T07:39:27;17.13;;;4.07;;
11839;SDS011;5979;50.800;4.904;2023-02-01T07:41:56;14.27;;;4.13;;
11839;SDS011;5979;50.800;4.904;2023-02-01T07:44:22;12.32;;;4.03;;
11839;SDS011;5979;50.800;4.904;2023-02-01T07:46:48;10.98;;;3.63;;
11839;SDS011;5979;50.800;4.904;2023-02-01T07:49:14;8.85;;;3.85;;
11839;SDS011;5979;50.800;4.904;2023-02-01T07:51:42;11.65;;;3.63;;
11839;SDS011;5979;50.800;4.904;2023-02-01T07:54:08;17.63;;;4.20;;
11839;SDS011;5979;50.800;4.904;2023-02-01T07:56:33;10.88;;;3.88;;
11839;SDS011;5979;50.800;4.904;2023-02-01T07:58:59;11.18;;;3.90;;
11839;SDS011;5979;50.800;4.904;2023-02-01T08:01:26;11.38;;;4.18;;
11839;SDS011;5979;50.800;4.904;2023-02-01T08:03:54;12.10;;;4.18;;
11839;SDS011;5979;50.800;4.904;2023-02-01T08:06:22;14.98;;;3.90;;
11839;SDS011;5979;50.800;4.904;2023-02-01T08:08:49;11.80;;;3.83;;
11839;SDS011;5979;50.800;4.904;2023-02-01T08:11:16;12.55;;;3.65;;
11839;SDS011;5979;50.800;4.904;2023-02-01T08:13:42;11.75;;;3.88;;
11839;SDS011;5979;50.800;4.904;2023-02-01T08:16:10;20.23;;;4.30;;
11839;SDS011;5979;50.800;4.904;2023-02-01T08:18:38;16.23;;;4.07;;
11839;SDS011;5979;50.800;4.904;2023-02-01T08:21:04;12.10;;;4.15;;
11839;SDS011;5979;50.800;4.904;2023-02-01T08:23:35;17.23;;;5.20;;
11839;SDS011;5979;50.800;4.904;2023-02-01T08:26:06;15.77;;;4.55;;
11839;SDS011;5979;50.800;4.904;2023-02-01T08:28:40;14.32;;;4.47;;
11839;SDS011;5979;50.800;4.904;2023-02-01T08:31:08;10.10;;;4.47;;
11839;SDS011;5979;50.800;4.904;2023-02-01T08:33:36;10.10;;;3.90;;
11839;SDS011;5979;50.800;4.904;2023-02-01T08:36:06;10.18;;;4.60;;
11839;SDS011;5979;50.800;4.904;2023-02-01T08:38:34;15.35;;;4.53;;
11839;SDS011;5979;50.800;4.904;2023-02-01T08:41:05;13.63;;;3.97;;
11839;SDS011;5979;50.800;4.904;2023-02-01T08:43:32;13.52;;;4.40;;
11839;SDS011;5979;50.800;4.904;2023-02-01T08:45:58;8.70;;;3.38;;
11839;SDS011;5979;50.800;4.904;2023-02-01T08:48:24;14.00;;;4.38;;
11839;SDS011;5979;50.800;4.904;2023-02-01T08:50:49;14.55;;;4.35;;
11839;SDS011;5979;50.800;4.904;2023-02-01T08:53:15;7.57;;;3.92;;
11839;SDS011;5979;50.800;4.904;2023-02-01T08:55:41;14.82;;;4.30;;
11839;SDS011;5979;50.800;4.904;2023-02-01T08:58:07;8.73;;;3.85;;
11839;SDS011;5979;50.800;4.904;2023-02-01T09:00:32;13.15;;;4.32;;
11839;SDS011;5979;50.800;4.904;2023-02-01T09:02:58;9.63;;;3.92;;
11839;SDS011;5979;50.800;4.904;2023-02-01T09:05:24;11.77;;;3.92;;
11839;SDS011;5979;50.800;4.904;2023-02-01T09:07:51;12.05;;;4.28;;
11839;SDS011;5979;50.800;4.904;2023-02-01T09:10:17;14.98;;;3.92;;
11839;SDS011;5979;50.800;4.904;2023-02-01T09:12:43;8.82;;;3.88;;
11839;SDS011;5979;50.800;4.904;2023-02-01T09:15:09;9.25;;;4.15;;
11839;SDS011;5979;50.800;4.904;2023-02-01T09:17:35;16.35;;;3.78;;
11839;SDS011;5979;50.800;4.904;2023-02-01T09:20:01;16.65;;;4.93;;
11839;SDS011;5979;50.800;4.904;2023-02-01T09:22:27;8.98;;;3.55;;
11839;SDS011;5979;50.800;4.904;2023-02-01T09:24:53;12.40;;;4.30;;
11839;SDS011;5979;50.800;4.904;2023-02-01T09:27:19;10.52;;;3.63;;
11839;SDS011;5979;50.800;4.904;2023-02-01T09:29:45;10.45;;;3.97;;
11839;SDS011;5979;50.800;4.904;2023-02-01T09:32:14;11.63;;;3.65;;
11839;SDS011;5979;50.800;4.904;2023-02-01T09:34:40;12.05;;;4.03;;
11839;SDS011;5979;50.800;4.904;2023-02-01T09:37:06;10.70;;;3.60;;
11839;SDS011;5979;50.800;4.904;2023-02-01T09:39:31;14.70;;;4.28;;
11839;SDS011;5979;50.800;4.904;2023-02-01T09:42:43;11.25;;;3.97;;
11839;SDS011;5979;50.800;4.904;2023-02-01T09:47:58;15.52;;;4.70;;
11839;SDS011;5979;50.800;4.904;2023-02-01T09:50:30;15.70;;;4.22;;
11839;SDS011;5979;50.800;4.904;2023-02-01T09:55:45;12.13;;;4.00;;
11839;SDS011;5979;50.800;4.904;2023-02-01T09:58:16;12.00;;;3.97;;
11839;SDS011;5979;50.800;4.904;2023-02-01T10:01:01;14.77;;;4.68;;
11839;SDS011;5979;50.800;4.904;2023-02-01T10:03:29;10.10;;;3.78;;
11839;SDS011;5979;50.800;4.904;2023-02-01T10:11:36;12.00;;;3.92;;
11839;SDS011;5979;50.800;4.904;2023-02-01T10:22:05;13.18;;;4.40;;
11839;SDS011;5979;50.800;4.904;2023-02-01T10:24:37;16.50;;;4.10;;
11839;SDS011;5979;50.800;4.904;2023-02-01T10:27:24;14.25;;;4.15;;
11839;SDS011;5979;50.800;4.904;2023-02-01T10:29:55;14.75;;;4.43;;
11839;SDS011;5979;50.800;4.904;2023-02-01T10:32:29;10.23;;;3.85;;
11839;SDS011;5979;50.800;4.904;2023-02-01T10:35:00;14.23;;;4.05;;
11839;SDS011;5979;50.800;4.904;2023-02-01T10:37:34;11.70;;;3.67;;
11839;SDS011;5979;50.800;4.904;2023-02-01T10:42:53;11.77;;;3.17;;
11839;SDS011;5979;50.800;4.904;2023-02-01T10:45:22;10.63;;;4.03;;
11839;SDS011;5979;50.800;4.904;2023-02-01T10:47:53;12.15;;;4.25;;
11839;SDS011;5979;50.800;4.904;2023-02-01T10:53:12;8.73;;;3.50;;
11839;SDS011;5979;50.800;4.904;2023-02-01T10:58:17;11.13;;;3.17;;
11839;SDS011;5979;50.800;4.904;2023-02-01T11:05:55;9.98;;;3.63;;
11839;SDS011;5979;50.800;4.904;2023-02-01T11:08:21;13.73;;;3.75;;
11839;SDS011;5979;50.800;4.904;2023-02-01T11:10:49;10.10;;;3.47;;
11839;SDS011;5979;50.800;4.904;2023-02-01T11:13:24;11.02;;;3.30;;
11839;SDS011;5979;50.800;4.904;2023-02-01T11:15:58;13.48;;;3.67;;
11839;SDS011;5979;50.800;4.904;2023-02-01T11:18:27;13.80;;;3.63;;
11839;SDS011;5979;50.800;4.904;2023-02-01T11:20:54;6.28;;;3.30;;
11839;SDS011;5979;50.800;4.904;2023-02-01T11:23:24;12.20;;;2.95;;
11839;SDS011;5979;50.800;4.904;2023-02-01T11:25:53;13.25;;;3.50;;
11839;SDS011;5979;50.800;4.904;2023-02-01T11:28:22;13.50;;;3.20;;
11839;SDS011;5979;50.800;4.904;2023-02-01T11:30:51;8.40;;;2.97;;
11839;SDS011;5979;50.800;4.904;2023-02-01T11:33:20;8.93;;;3.55;;
11839;SDS011;5979;50.800;4.904;2023-02-01T11:35:54;13.30;;;3.58;;
11839;SDS011;5979;50.800;4.904;2023-02-01T11:38:27;7.95;;;2.53;;
11839;SDS011;5979;50.800;4.904;2023-02-01T11:40:55;5.05;;;2.25;;
11839;SDS011;5979;50.800;4.904;2023-02-01T11:43:36;8.18;;;2.72;;
11839;SDS011;5979;50.800;4.904;2023-02-01T11:46:02;8.15;;;3.35;;
11839;SDS011;5979;50.800;4.904;2023-02-01T11:48:41;11.55;;;3.13;;
11839;SDS011;5979;50.800;4.904;2023-02-01T11:54:08;6.32;;;2.63;;
11839;SDS011;5979;50.800;4.904;2023-02-01T12:16:18;9.85;;;2.67;;
11839;SDS011;5979;50.800;4.904;2023-02-01T12:19:12;4.38;;;2.53;;
11839;SDS011;5979;50.800;4.904;2023-02-01T12:22:04;9.77;;;2.60;;
11839;SDS011;5979;50.800;4.904;2023-02-01T12:50:03;6.07;;;2.10;;
11839;SDS011;5979;50.800;4.904;2023-02-01T12:52:46;5.47;;;2.22;;
11839;SDS011;5979;50.800;4.904;2023-02-01T12:58:10;7.05;;;2.50;;
11839;SDS011;5979;50.800;4.904;2023-02-01T13:00:46;4.57;;;2.17;;
11839;SDS011;5979;50.800;4.904;2023-02-01T13:06:02;4.88;;;2.15;;
11839;SDS011;5979;50.800;4.904;2023-02-01T13:09:38;6.75;;;2.30;;
11839;SDS011;5979;50.800;4.904;2023-02-01T13:11:37;6.18;;;2.10;;
11839;SDS011;5979;50.800;4.904;2023-02-01T13:14:15;5.90;;;2.03;;
11839;SDS011;5979;50.800;4.904;2023-02-01T13:17:02;5.45;;;2.00;;
11839;SDS011;5979;50.800;4.904;2023-02-01T13:25:03;3.83;;;2.42;;
11839;SDS011;5979;50.800;4.904;2023-02-01T13:27:38;5.53;;;2.38;;
11839;SDS011;5979;50.800;4.904;2023-02-01T13:30:07;5.05;;;2.30;;
11839;SDS011;5979;50.800;4.904;2023-02-01T13:35:44;4.68;;;1.52;;
11839;SDS011;5979;50.800;4.904;2023-02-01T13:38:25;5.93;;;2.25;;
11839;SDS011;5979;50.800;4.904;2023-02-01T13:43:48;4.28;;;1.77;;
11839;SDS011;5979;50.800;4.904;2023-02-01T13:46:16;4.30;;;2.03;;
11839;SDS011;5979;50.800;4.904;2023-02-01T13:48:50;4.30;;;2.10;;
11839;SDS011;5979;50.800;4.904;2023-02-01T13:51:30;4.97;;;1.98;;
11839;SDS011;5979;50.800;4.904;2023-02-01T13:53:59;4.28;;;1.60;;
11839;SDS011;5979;50.800;4.904;2023-02-01T13:56:25;5.40;;;1.77;;
11839;SDS011;5979;50.800;4.904;2023-02-01T13:58:51;4.03;;;1.83;;
11839;SDS011;5979;50.800;4.904;2023-02-01T14:19:35;6.38;;;2.25;;
11839;SDS011;5979;50.800;4.904;2023-02-01T14:24:39;7.57;;;2.58;;
11839;SDS011;5979;50.800;4.904;2023-02-01T14:29:37;9.30;;;2.60;;
11839;SDS011;5979;50.800;4.904;2023-02-01T14:32:21;7.10;;;1.92;;
11839;SDS011;5979;50.800;4.904;2023-02-01T14:34:54;5.22;;;2.15;;
11839;SDS011;5979;50.800;4.904;2023-02-01T14:37:26;5.68;;;2.20;;
11839;SDS011;5979;50.800;4.904;2023-02-01T14:39:56;7.03;;;2.42;;
11839;SDS011;5979;50.800;4.904;2023-02-01T14:55:43;6.95;;;2.13;;
11839;SDS011;5979;50.800;4.904;2023-02-01T14:58:16;6.70;;;2.13;;
11839;SDS011;5979;50.800;4.904;2023-02-01T15:01:24;11.65;;;2.17;;
11839;SDS011;5979;50.800;4.904;2023-02-01T15:09:15;5.18;;;2.20;;
11839;SDS011;5979;50.800;4.904;2023-02-01T15:14:37;5.80;;;2.40;;
11839;SDS011;5979;50.800;4.904;2023-02-01T15:19:59;5.38;;;2.83;;
11839;SDS011;5979;50.800;4.904;2023-02-01T15:22:27;3.97;;;2.10;;
11839;SDS011;5979;50.800;4.904;2023-02-01T15:24:55;8.32;;;2.40;;
11839;SDS011;5979;50.800;4.904;2023-02-01T15:27:22;8.40;;;2.63;;
11839;SDS011;5979;50.800;4.904;2023-02-01T15:29:48;10.20;;;3.17;;
11839;SDS011;5979;50.800;4.904;2023-02-01T15:32:30;7.15;;;2.47;;
11839;SDS011;5979;50.800;4.904;2023-02-01T15:35:01;8.80;;;3.13;;
11839;SDS011;5979;50.800;4.904;2023-02-01T15:37:27;7.45;;;2.55;;
11839;SDS011;5979;50.800;4.904;2023-02-01T15:42:57;9.50;;;3.47;;
11839;SDS011;5979;50.800;4.904;2023-02-01T15:45:27;5.78;;;2.63;;
11839;SDS011;5979;50.800;4.904;2023-02-01T15:47:55;8.43;;;2.72;;
11839;SDS011;5979;50.800;4.904;2023-02-01T15:50:22;4.97;;;2.80;;
11839;SDS011;5979;50.800;4.904;2023-02-01T15:52:49;8.88;;;2.60;;
11839;SDS011;5979;50.800;4.904;2023-02-01T15:55:18;7.28;;;2.90;;
11839;SDS011;5979;50.800;4.904;2023-02-01T15:57:56;8.90;;;3.00;;
11839;SDS011;5979;50.800;4.904;2023-02-01T16:00:26;7.57;;;2.70;;
11839;SDS011;5979;50.800;4.904;2023-02-01T16:03:00;9.20;;;3.15;;
11839;SDS011;5979;50.800;4.904;2023-02-01T16:10:41;7.55;;;2.35;;
11839;SDS011;5979;50.800;4.904;2023-02-01T16:13:08;6.40;;;2.58;;
11839;SDS011;5979;50.800;4.904;2023-02-01T16:15:34;16.33;;;3.33;;
11839;SDS011;5979;50.800;4.904;2023-02-01T16:18:00;8.30;;;2.90;;
11839;SDS011;5979;50.800;4.904;2023-02-01T16:20:26;15.05;;;3.05;;
11839;SDS011;5979;50.800;4.904;2023-02-01T16:22:52;7.72;;;2.80;;
11839;SDS011;5979;50.800;4.904;2023-02-01T16:25:18;7.88;;;2.97;;
11839;SDS011;5979;50.800;4.904;2023-02-01T16:27:44;7.75;;;2.75;;
11839;SDS011;5979;50.800;4.904;2023-02-01T16:30:09;8.48;;;2.50;;
11839;SDS011;5979;50.800;4.904;2023-02-01T16:32:36;9.90;;;3.35;;
11839;SDS011;5979;50.800;4.904;2023-02-01T16:35:10;7.30;;;2.92;;
11839;SDS011;5979;50.800;4.904;2023-02-01T16:37:44;7.28;;;2.90;;
11839;SDS011;5979;50.800;4.904;2023-02-01T16:40:13;7.63;;;2.60;;
11839;SDS011;5979;50.800;4.904;2023-02-01T16:42:40;7.53;;;3.38;;
11839;SDS011;5979;50.800;4.904;2023-02-01T16:45:06;9.68;;;2.85;;
11839;SDS011;5979;50.800;4.904;2023-02-01T16:47:33;12.50;;;3.53;;
11839;SDS011;5979;50.800;4.904;2023-02-01T16:50:01;9.25;;;3.13;;
11839;SDS011;5979;50.800;4.904;2023-02-01T16:52:27;8.40;;;3.33;;
11839;SDS011;5979;50.800;4.904;2023-02-01T16:54:52;10.80;;;3.25;;
11839;SDS011;5979;50.800;4.904;2023-02-01T16:57:19;10.27;;;3.70;;
11839;SDS011;5979;50.800;4.904;2023-02-01T16:59:49;7.25;;;2.90;;
11839;SDS011;5979;50.800;4.904;2023-02-01T17:02:18;10.05;;;3.50;;
11839;SDS011;5979;50.800;4.904;2023-02-01T17:04:44;9.23;;;3.45;;
11839;SDS011;5979;50.800;4.904;2023-02-01T17:07:17;7.90;;;3.10;;
11839;SDS011;5979;50.800;4.904;2023-02-01T17:09:44;6.50;;;3.08;;
11839;SDS011;5979;50.800;4.904;2023-02-01T17:12:23;9.82;;;2.95;;
11839;SDS011;5979;50.800;4.904;2023-02-01T17:14:51;9.35;;;3.13;;
11839;SDS011;5979;50.800;4.904;2023-02-01T17:17:17;7.72;;;3.35;;
11839;SDS011;5979;50.800;4.904;2023-02-01T17:19:44;13.60;;;2.90;;
11839;SDS011;5979;50.800;4.904;2023-02-01T17:22:15;12.73;;;3.25;;
11839;SDS011;5979;50.800;4.904;2023-02-01T17:24:41;11.98;;;3.67;;
11839;SDS011;5979;50.800;4.904;2023-02-01T17:27:07;7.72;;;3.15;;
11839;SDS011;5979;50.800;4.904;2023-02-01T17:29:32;7.90;;;3.20;;
11839;SDS011;5979;50.800;4.904;2023-02-01T17:31:58;12.02;;;3.75;;
11839;SDS011;5979;50.800;4.904;2023-02-01T17:34:25;10.55;;;3.45;;
11839;SDS011;5979;50.800;4.904;2023-02-01T17:36:51;7.72;;;3.17;;
11839;SDS011;5979;50.800;4.904;2023-02-01T17:39:17;10.95;;;3.67;;
11839;SDS011;5979;50.800;4.904;2023-02-01T17:42:01;8.13;;;3.33;;
11839;SDS011;5979;50.800;4.904;2023-02-01T17:44:28;10.82;;;3.55;;
11839;SDS011;5979;50.800;4.904;2023-02-01T17:46:54;10.98;;;3.63;;
11839;SDS011;5979;50.800;4.904;2023-02-01T17:49:21;9.77;;;3.47;;
11839;SDS011;5979;50.800;4.904;2023-02-01T17:51:47;11.07;;;3.30;;
11839;SDS011;5979;50.800;4.904;2023-02-01T17:54:16;8.73;;;3.17;;
11839;SDS011;5979;50.800;4.904;2023-02-01T17:56:44;13.05;;;3.92;;
11839;SDS011;5979;50.800;4.904;2023-02-01T17:59:12;12.27;;;3.88;;
11839;SDS011;5979;50.800;4.904;2023-02-01T18:01:39;9.60;;;3.60;;
11839;SDS011;5979;50.800;4.904;2023-02-01T18:04:05;9.70;;;3.47;;
11839;SDS011;5979;50.800;4.904;2023-02-01T18:06:36;10.75;;;3.25;;
11839;SDS011;5979;50.800;4.904;2023-02-01T18:09:01;7.43;;;2.88;;
11839;SDS011;5979;50.800;4.904;2023-02-01T18:11:27;9.32;;;3.72;;
11839;SDS011;5979;50.800;4.904;2023-02-01T18:13:57;12.00;;;3.88;;
11839;SDS011;5979;50.800;4.904;2023-02-01T18:16:24;12.73;;;3.80;;
11839;SDS011;5979;50.800;4.904;2023-02-01T18:18:52;13.23;;;3.78;;
11839;SDS011;5979;50.800;4.904;2023-02-01T18:21:19;10.68;;;3.40;;
11839;SDS011;5979;50.800;4.904;2023-02-01T18:23:46;7.82;;;3.63;;
11839;SDS011;5979;50.800;4.904;2023-02-01T18:26:13;7.50;;;3.25;;
11839;SDS011;5979;50.800;4.904;2023-02-01T18:28:40;6.82;;;3.80;;
11839;SDS011;5979;50.800;4.904;2023-02-01T18:31:07;9.90;;;4.53;;